Member area
Imprimable
Couvin, 10/02/2018, BEL - Trail et Marche des 3 Vallées
List of reports > 22km - Result
Search: Page: [1]
81 Entries
 
Complains are not accepted anymore. Results are final.
PlaceNrNameAgeNATLeagueTeamRealTimeTkmMoy.ScrCity
1.292MOUCHET STEPHANE44BELACCO1:30:421:30:424:08 14.561
2.188PASQUASY FABIEN40BELACCO1:32:521:32:524:14 14.214SAUTOUR
3.249DEPRET RUDY43BELSHARKS TRIATHLON1:36:331:36:334:24 13.675
4.70DEPAEPE PATRICK48BELBIOTRAIL RUNNING TEAM1:44:191:44:194:45 12.659THIEUSIES
5.605BROGNIART STÉPHANE42FRA1:44:301:44:304:45 12.6311
6.101FRANCOIS BENOIT42BELTHEODOTEMPO1:46:101:46:104:50 12.4313NEUFVILLES
7.248DAMBROISE YVES47BELCHARLETEAM1:47:531:47:534:55 12.2416LANEFFE
8.132HENNEBELLE NICOLAS43FRAJEANNETTE SPORTING CLUB1:53:381:53:385:10 11.6224LEZ FONTAINE
9.50COUSIN PIERRE43FRA1:54:361:54:365:13 11.5226SÉMERIES
10.303COLOT ETIENNE45BEL1:58:061:58:065:23 11.1841
11.357CATOIR BERTRAND41BELESM1:58:261:58:265:23 11.1544
12.195PIETTE MICHAEL46BEL1:59:381:59:385:27 11.0346AGIMONT
13.100FOURQUET BORIS47FRATRAILEURS DES FAGNES1:59:441:59:445:27 11.0247RIQHEWIHR
14.380BRUNO STEFANO47BELUAC1:59:591:59:595:28 11.0048
15.279KEMPENEERS THIERRY45BEL2:00:432:00:435:30 10.9452
16.48CORNIL THIERRY47BELSOLIDA RUN -HTT2:01:512:01:515:33 10.8357COURCELLES
17.207ROGGEN JOEP45BELHZ JOGGEN2:02:212:02:215:34 10.7962LEUVEN
18.351SANA ERWAN40BEL2:03:092:03:095:36 10.7266
19.349CHAMPENOIS PHILIPPE48BELPHILIPPE CHAMPENOIS2:03:212:03:215:37 10.7069SAINT REMY
20.76DHIVER JOHNNY47FRAOSM LOMME2:04:212:04:215:40 10.6277ARMENTIERES
21.386BODART PIERRE45BEL2:04:512:04:515:41 10.5781
22.230VANDECATSEYN PASCAL42BELRUNNING CLUB METTET2:05:012:05:015:41 10.5682FLORENNES
23.152LEFEBVRE SEBASTIEN45BELCCSTC2:05:072:05:075:42 10.5583COUVIN
24.37CHABOT DAVID47FRA2:05:102:05:105:42 10.5585MONTCY NOTRE DAME
25.182NICOLAS SÉBASTIEN41BELROCROI SPORT NATURE2:05:452:05:455:43 10.5087PRESGAUX
26.352DOMINGUES DANIEL44BELTEAM TRIATHLON MAUBEUGE2:05:482:05:485:44 10.4988
27.17BELLENGER BRUNO48BELJTRR2:07:082:07:085:47 10.3895PESCHE
28.228TOUZEAU JEAN LUC48FRA2:09:272:09:275:54 10.20101BUIRE
29.71DE PAUW CHRISTOPHE48BELJCMONTAGNARD2:10:062:10:065:55 10.15105MONT SUR MARCHIENNE
30.199PRÉVOST JULIEN41BELLES AMIS DU COLLANT2:10:502:10:505:57 10.09110MONTIGNIES-SUR-SAMBRE
31.219STEVENS TANGUY45BEL2:11:482:11:486:00 10.02117PHILIPPEVILLE
32.45COLINET BENOÎT46BEL2:13:342:13:346:05 9.88125PHILIPPEVILLE
33.290GILLET GREG40BELTEAM SEDAN TRIATHLON2:14:462:14:466:08 9.80131
34.387PETER WALRAVENS49BEL2:15:252:15:256:10 9.75137
35.210ROYER CHRISTOPHE43FRALES TRAILEURS DE LA POINT2:15:292:15:296:10 9.74139VIREUX-MOLHAIN
36.324DEDONCKER DAMIEN44BELJACO2:17:292:17:296:15 9.60151
37.323LEROY JEAN - PIERRE47BEL2:17:322:17:326:16 9.60152PESCHE
38.139HUART OLIVIER46BELLA THURE2:17:592:17:596:17 9.57154SIVRY
39.11BAIANA GIANNI45ITALES P'TITS SPRINTEURS MET2:18:402:18:406:19 9.52157BIESME
40.180MONIN MIGUEL41BELARCH2:20:572:20:576:25 9.37162CINEY
41.347DESIMEUR JEROME40BELAC FRONTIERES2:21:142:21:146:26 9.35164
42.189PERL FREDERIC43BEL2:21:252:21:256:26 9.34165VILLERS-LA-VILLE
43.343LECUYER FRED47BEL2:21:312:21:316:26 9.33166
44.256STEENPUT THIERRY45BEL2:22:162:22:166:28 9.28175BUGGENHOUT
45.123GRAVIER FRÉDÉRIC48BELTCBM2:22:252:22:256:29 9.27177AMAY
46.18BELMANS RAF43BELNON2:22:342:22:346:29 9.26180VISSENAKEN
47.171MAURENNE FRANÇOIS46BELUSV862:22:462:22:466:30 9.25183GUÉ-D'HOSSUS
48.5ANTOINE EDDY45BELGRANNY2:22:572:22:576:30 9.23185COUVIN
49.98FOUCAUT RUDY43FRACSCVH ATHLE2:22:592:22:596:30 9.23186VERVINS
50.320VANEYLL PHILIPPE42BEL2:23:392:23:396:32 9.19190
51.226TOMASSONI DAVID47FRASHARKS TRIATHLON2:24:342:24:346:35 9.13197VIREUX WALLERAND
52.346CORDEWEWER JOEL43BELAC FRONTIERES2:24:582:24:586:36 9.11198
53.238VAN LERBERGHE DAVID41BELCCSTC2:26:212:26:216:40 9.02205COUVIN
54.169MASSON DAVE42BEL2:27:562:27:566:44 8.92214LA BOUVERIE
55.1004ASSELMAN KURT48BEL2:28:122:28:126:45 8.91215SCHEPDAAL
56.355HENRARY MARC42BELROCCO TEAM2:29:022:29:026:47 8.86218
57.359CARDOSO MANUEL45BELROCCO TEAM2:29:022:29:026:47 8.86219
58.112GILLIEAUX ALAIN49BELQ3T2:29:532:29:536:49 8.81221MONT SUR MARCHIENNE
59.209ROUSSEAU OLIVIER49BELESM2:30:312:30:316:51 8.77225GOSSELIES
60.325GILLES SEBASTIEN42BELLES TRAILEURS DE LA POINT2:32:202:32:206:56 8.67229
61.212SAELENS BENOIT42FRAROCCO TEAM2:33:032:33:036:58 8.63232LOMME
62.79DROMZEE LUDOVIC42FRA2:33:282:33:286:59 8.60236FROMELENNES
63.304TOSCANUCCI MICHAEL43BELZATAC CHARLEROI2:35:142:35:147:04 8.50245
64.308DEVOS JEAN-FRANCOIS45BELGAMBINOTEAM2:36:362:36:367:08 8.43254
65.173MICHEL PIERRE49BELRUNNING CLUB METTET2:39:442:39:447:16 8.26264DENEE
66.309BELMANS JAN44BEL2:40:292:40:297:18 8.23269
67.310HUYGHE KATRIEN41BEL2:40:302:40:307:18 8.22270
68.253LAVERDURE THIBAUT48BELU6 LOW BENELUX2:40:492:40:497:19 8.21271
69.333PENNUCCI DAVID42BELZIO RUNNING TEAM2:41:182:41:187:20 8.18273
70.366DOBROWOSKI PIERRE41BELROCCO TEAM2:41:572:41:577:22 8.15275
71.285WULLAERT ADIREN41BELTRAILER FAGNE2:44:012:44:017:28 8.05285
72.140HUBERLAND JEAN-MARC46BELCABW PHILIPPEVILLE2:49:502:49:507:44 7.77296SURICE
73.86ESPREUX SEBASTIEN40BEL2:51:442:51:447:49 7.69300ROCROI
74.261PAO-MOLE AMILCAR43BELTEAM D'AISEAU2:54:002:54:007:55 7.59307
75.259MALHERBE OLIVIER40BEL2:54:022:54:027:55 7.58308
76.94FONTESSE AGANY47BELCENTRE SPORTIF CHIMAY2:58:312:58:318:07 7.39312CHIMAY
77.62DELAHAUT THIERRY48BELJACO3:04:373:04:378:24 7.15316VIRELLES
78.198PRÉAT VINCENT49BEL3:35:133:35:139:47 6.13335VELAINE
DSQ229TOUZEAU JEAN PIERRE48FRAJACO2:01:272:01:27SAINT MICHEL
DSQ240VASSAMILLET FRÉDÉRIC49BELLATITUDE NORDIQUE3:35:283:35:28HAVRÉ
DSQ150LECOCQ YVES49BELLATITUDE NORDIQUE4:00:044:00:04CUESMES
DNF: did not finish; DSQ: disqualified; Speed in km/h
Page: [1]